Time,TemperatureF,DewpointF,PressureIn,WindDirection,WindDirectionDegrees,WindSpeedMPH,WindSpeedGustMPH,Humidity,HourlyPrecipIn,Conditions,Clouds,dailyrainin,SoftwareType,DateUTC
2013-08-09 00:00:00,71.4,68.7,29.96,ENE,73,0.0,0.0,91,0.01,,,-99.99,meteobridge,2013-08-09 04:00:00,
2013-08-09 00:02:00,71.4,68.7,29.96,East,91,0.0,0.9,91,0.01,,,0.00,meteobridge,2013-08-09 04:02:00,
2013-08-09 00:06:00,71.4,68.7,29.96,SSE,157,0.0,0.0,91,0.01,,,0.00,meteobridge,2013-08-09 04:06:00,
2013-08-09 00:10:00,71.4,68.7,29.96,SE,139,0.0,0.0,91,0.01,,,0.00,meteobridge,2013-08-09 04:10:00,
2013-08-09 00:14:00,71.4,68.7,29.96,East,84,0.0,0.0,91,0.01,,,0.00,meteobridge,2013-08-09 04:14:00,
2013-08-09 00:21:00,71.4,68.7,29.96,ESE,121,0.0,0.9,91,0.01,,,0.00,meteobridge,2013-08-09 04:21:00,
2013-08-09 00:25:00,71.2,68.5,29.96,ESE,117,0.0,0.0,91,0.01,,,0.00,meteobridge,2013-08-09 04:25:00,
2013-08-09 00:31:00,71.2,68.5,29.95,South,173,0.0,0.0,91,0.01,,,0.00,meteobridge,2013-08-09 04:31:00,
2013-08-09 00:38:00,71.2,68.5,29.95,South,183,0.0,0.9,91,0.02,,,0.01,meteobridge,2013-08-09 04:38:00,
2013-08-09 00:44:00,71.1,68.4,29.95,SE,129,0.0,0.0,91,0.02,,,0.01,meteobridge,2013-08-09 04:44:00,
2013-08-09 00:50:00,71.1,68.4,29.95,South,185,0.0,0.0,91,0.01,,,0.01,meteobridge,2013-08-09 04:50:00,
2013-08-09 00:56:00,71.1,68.4,29.94,SE,141,0.0,0.0,91,0.01,,,0.01,meteobridge,2013-08-09 04:56:00,
2013-08-09 01:02:00,70.9,68.2,29.94,SE,144,0.0,0.9,91,0.01,,,0.01,meteobridge,2013-08-09 05:02:00,
2013-08-09 01:08:00,70.9,68.4,29.94,South,186,0.0,0.0,92,0.01,,,0.01,meteobridge,2013-08-09 05:08:00,
2013-08-09 01:15:00,70.9,68.4,29.94,SSE,158,0.0,0.0,92,0.01,,,0.01,meteobridge,2013-08-09 05:15:00,
2013-08-09 01:21:00,70.9,68.4,29.93,NE,47,0.0,0.9,92,0.01,,,0.01,meteobridge,2013-08-09 05:21:00,
2013-08-09 01:27:00,70.7,68.2,29.93,SSE,155,0.0,0.0,92,0.01,,,0.01,meteobridge,2013-08-09 05:27:00,
2013-08-09 01:36:00,70.7,68.2,29.93,SE,135,0.0,0.0,92,0.00,,,0.01,meteobridge,2013-08-09 05:36:00,
2013-08-09 01:42:00,70.7,68.2,29.93,SSE,152,0.0,0.0,92,0.00,,,0.01,meteobridge,2013-08-09 05:42:00,
2013-08-09 01:48:00,70.5,68.0,29.93,SE,139,0.0,0.0,92,0.00,,,0.01,meteobridge,2013-08-09 05:48:00,
2013-08-09 01:56:00,70.5,68.0,29.93,South,169,0.0,0.0,92,0.00,,,0.01,meteobridge,2013-08-09 05:56:00,
2013-08-09 02:02:00,70.5,68.0,29.93,SE,136,0.0,0.0,92,0.00,,,0.01,meteobridge,2013-08-09 06:02:00,
2013-08-09 02:09:00,70.5,68.0,29.93,SSE,152,0.0,0.0,92,0.00,,,0.01,meteobridge,2013-08-09 06:09:00,
2013-08-09 02:15:00,70.5,68.0,29.92,SW,217,0.0,0.0,92,0.00,,,0.01,meteobridge,2013-08-09 06:15:00,
2013-08-09 02:21:00,70.3,67.8,29.92,SSE,160,0.0,0.0,92,0.01,,,0.02,meteobridge,2013-08-09 06:21:00,
2013-08-09 02:27:00,70.3,67.8,29.92,South,183,0.0,4.0,92,0.02,,,0.03,meteobridge,2013-08-09 06:27:00,
2013-08-09 02:36:00,70.3,67.8,29.92,East,101,0.0,0.9,92,0.04,,,0.05,meteobridge,2013-08-09 06:36:00,
2013-08-09 02:42:00,70.3,67.8,29.91,SSE,152,0.0,0.0,92,0.05,,,0.06,meteobridge,2013-08-09 06:42:00,
2013-08-09 02:48:00,70.3,67.8,29.91,SW,224,0.0,0.0,92,0.06,,,0.07,meteobridge,2013-08-09 06:48:00,
2013-08-09 02:54:00,70.3,67.8,29.91,SSW,198,0.0,0.0,92,0.07,,,0.08,meteobridge,2013-08-09 06:54:00,
2013-08-09 03:01:00,70.3,67.8,29.91,ENE,74,0.9,4.0,92,0.07,,,0.08,meteobridge,2013-08-09 07:01:00,
2013-08-09 03:07:00,70.3,67.8,29.91,SE,136,0.0,2.0,92,0.07,,,0.08,meteobridge,2013-08-09 07:07:00,
2013-08-09 03:15:00,70.3,67.8,29.90,SSE,160,0.0,0.0,92,0.08,,,0.09,meteobridge,2013-08-09 07:15:00,
2013-08-09 03:22:00,70.5,68.0,29.90,ESE,115,2.0,2.9,92,0.08,,,0.10,meteobridge,2013-08-09 07:22:00,
2013-08-09 03:28:00,70.5,68.0,29.90,SSE,147,0.9,2.0,92,0.12,,,0.15,meteobridge,2013-08-09 07:28:00,
2013-08-09 03:36:00,70.5,68.0,29.90,SE,141,0.9,2.0,92,0.12,,,0.17,meteobridge,2013-08-09 07:36:00,
2013-08-09 03:42:00,70.5,68.0,29.90,SSE,148,0.0,6.0,92,0.11,,,0.17,meteobridge,2013-08-09 07:42:00,
2013-08-09 03:48:00,70.5,68.0,29.90,SE,134,0.0,0.9,92,0.22,,,0.29,meteobridge,2013-08-09 07:48:00,
2013-08-09 03:56:00,70.5,68.0,29.90,SE,125,2.9,4.0,92,0.26,,,0.34,meteobridge,2013-08-09 07:56:00,
2013-08-09 04:03:00,70.7,68.2,29.90,North,0,0.0,2.9,92,0.29,,,0.37,meteobridge,2013-08-09 08:03:00,
2013-08-09 04:09:00,70.7,68.2,29.90,SE,139,2.0,2.9,92,0.37,,,0.46,meteobridge,2013-08-09 08:09:00,
2013-08-09 04:15:00,70.7,68.2,29.89,SSE,155,0.9,2.9,92,0.39,,,0.48,meteobridge,2013-08-09 08:15:00,
2013-08-09 04:21:00,70.7,68.2,29.89,SSE,150,0.0,6.0,92,0.39,,,0.49,meteobridge,2013-08-09 08:21:00,
2013-08-09 04:27:00,70.7,68.2,29.89,SW,231,0.0,2.9,92,0.34,,,0.49,meteobridge,2013-08-09 08:27:00,
2013-08-09 04:35:00,70.7,68.2,29.89,SSE,167,0.0,2.9,92,0.32,,,0.49,meteobridge,2013-08-09 08:35:00,
2013-08-09 04:42:00,70.9,68.4,29.88,South,171,2.9,2.9,92,0.32,,,0.49,meteobridge,2013-08-09 08:42:00,
2013-08-09 04:48:00,70.9,68.4,29.88,SW,226,0.9,2.9,92,0.20,,,0.49,meteobridge,2013-08-09 08:48:00,
2013-08-09 04:54:00,70.9,68.4,29.88,SSW,211,0.9,4.0,92,0.15,,,0.49,meteobridge,2013-08-09 08:54:00,
2013-08-09 05:00:00,71.1,68.5,29.88,SSE,160,0.0,0.0,92,0.14,,,0.49,meteobridge,2013-08-09 09:00:00,
2013-08-09 05:06:00,71.1,68.5,29.88,SSE,160,0.0,0.0,92,0.09,,,0.50,meteobridge,2013-08-09 09:06:00,
2013-08-09 05:12:00,71.1,68.5,29.88,ENE,75,2.9,2.9,92,0.02,,,0.50,meteobridge,2013-08-09 09:12:00,
2013-08-09 05:18:00,71.1,68.5,29.88,NNE,20,0.9,4.9,92,0.02,,,0.51,meteobridge,2013-08-09 09:18:00,
2013-08-09 05:25:00,71.1,68.5,29.88,SSE,164,0.9,4.0,92,0.03,,,0.52,meteobridge,2013-08-09 09:25:00,
2013-08-09 05:31:00,71.1,68.5,29.87,SE,132,2.0,6.9,92,0.05,,,0.54,meteobridge,2013-08-09 09:31:00,
2013-08-09 05:37:00,71.1,68.5,29.88,ENE,72,4.0,4.9,92,0.06,,,0.55,meteobridge,2013-08-09 09:37:00,
2013-08-09 05:45:00,71.2,68.7,29.87,SSE,153,0.9,4.0,92,0.07,,,0.56,meteobridge,2013-08-09 09:45:00,
2013-08-09 05:51:00,71.2,68.7,29.87,SSE,158,0.0,4.0,92,0.08,,,0.57,meteobridge,2013-08-09 09:51:00,
2013-08-09 05:58:00,71.2,68.7,29.87,SSE,148,0.9,4.9,92,0.09,,,0.58,meteobridge,2013-08-09 09:58:00,
2013-08-09 06:06:00,71.2,68.7,29.87,SE,129,0.0,6.9,92,0.10,,,0.60,meteobridge,2013-08-09 10:06:00,
2013-08-09 06:12:00,71.2,68.7,29.87,SSE,162,0.9,2.9,92,0.10,,,0.60,meteobridge,2013-08-09 10:12:00,
2013-08-09 06:18:00,71.2,68.7,29.87,East,81,2.0,6.9,92,0.09,,,0.60,meteobridge,2013-08-09 10:18:00,
2013-08-09 06:26:00,71.2,68.7,29.86,ENE,73,2.9,6.9,92,0.07,,,0.60,meteobridge,2013-08-09 10:26:00,
2013-08-09 06:32:00,71.2,68.7,29.86,SSW,207,0.9,6.0,92,0.06,,,0.60,meteobridge,2013-08-09 10:32:00,
2013-08-09 06:38:00,71.2,68.7,29.86,SSE,155,2.9,4.9,92,0.05,,,0.60,meteobridge,2013-08-09 10:38:00,
2013-08-09 06:44:00,71.2,68.7,29.86,SE,125,2.0,2.9,92,0.04,,,0.60,meteobridge,2013-08-09 10:44:00,
2013-08-09 06:51:00,71.2,68.7,29.86,SSE,159,2.0,8.1,92,0.03,,,0.60,meteobridge,2013-08-09 10:51:00,
2013-08-09 06:57:00,71.2,68.7,29.86,SSW,208,2.0,4.0,92,0.02,,,0.60,meteobridge,2013-08-09 10:57:00,
2013-08-09 07:03:00,71.2,68.7,29.86,SSW,213,0.9,6.0,92,0.00,,,0.60,meteobridge,2013-08-09 11:03:00,
2013-08-09 07:09:00,71.2,68.7,29.85,SSE,160,2.9,6.0,92,0.00,,,0.60,meteobridge,2013-08-09 11:09:00,
2013-08-09 07:15:00,71.4,68.9,29.85,South,173,2.0,6.9,92,0.00,,,0.60,meteobridge,2013-08-09 11:15:00,
2013-08-09 07:21:00,71.4,68.9,29.85,ESE,109,0.9,4.0,92,0.00,,,0.60,meteobridge,2013-08-09 11:21:00,
2013-08-09 07:27:00,71.4,68.9,29.85,SSW,203,2.0,8.1,92,0.00,,,0.60,meteobridge,2013-08-09 11:27:00,
2013-08-09 07:33:00,71.4,68.9,29.85,ESE,111,2.9,4.0,92,0.00,,,0.60,meteobridge,2013-08-09 11:33:00,
2013-08-09 07:40:00,71.4,68.9,29.85,SW,228,0.0,0.9,92,0.00,,,0.60,meteobridge,2013-08-09 11:40:00,
2013-08-09 07:46:00,71.6,69.1,29.85,SSE,157,2.0,2.9,92,0.00,,,0.60,meteobridge,2013-08-09 11:46:00,
2013-08-09 07:52:00,71.6,69.1,29.85,SE,124,4.0,8.9,92,0.00,,,0.60,meteobridge,2013-08-09 11:52:00,
2013-08-09 07:58:00,71.6,69.1,29.84,WSW,250,0.9,6.0,92,0.00,,,0.60,meteobridge,2013-08-09 11:58:00,
2013-08-09 08:06:00,71.6,69.1,29.84,South,176,0.9,2.9,92,0.00,,,0.60,meteobridge,2013-08-09 12:06:00,
2013-08-09 08:12:00,71.8,69.3,29.84,South,187,2.9,4.0,92,0.00,,,0.60,meteobridge,2013-08-09 12:12:00,
2013-08-09 08:18:00,71.8,69.3,29.84,SW,218,2.0,2.0,92,0.00,,,0.60,meteobridge,2013-08-09 12:18:00,
2013-08-09 08:25:00,71.8,69.3,29.84,ESE,103,0.0,2.9,92,0.01,,,0.61,meteobridge,2013-08-09 12:25:00,
2013-08-09 08:31:00,71.8,69.3,29.83,WSW,249,0.9,4.0,92,0.01,,,0.61,meteobridge,2013-08-09 12:31:00,
2013-08-09 08:37:00,71.8,69.3,29.83,SSE,163,2.0,6.0,92,0.01,,,0.61,meteobridge,2013-08-09 12:37:00,
2013-08-09 08:43:00,72.0,69.4,29.82,East,79,4.0,4.0,92,0.01,,,0.61,meteobridge,2013-08-09 12:43:00,
2013-08-09 08:49:00,72.0,69.4,29.82,SE,129,0.0,2.9,92,0.01,,,0.61,meteobridge,2013-08-09 12:49:00,
2013-08-09 08:55:00,72.0,69.4,29.82,SW,219,0.0,2.9,92,0.01,,,0.61,meteobridge,2013-08-09 12:55:00,
2013-08-09 09:01:00,72.0,69.4,29.82,SW,233,0.0,0.9,92,0.01,,,0.61,meteobridge,2013-08-09 13:01:00,
2013-08-09 09:08:00,72.0,69.4,29.82,East,91,0.9,0.9,92,0.01,,,0.61,meteobridge,2013-08-09 13:08:00,
2013-08-09 09:14:00,72.0,69.4,29.82,WSW,249,0.0,0.0,92,0.01,,,0.61,meteobridge,2013-08-09 13:14:00,
2013-08-09 09:20:00,72.1,69.6,29.82,SSW,213,0.0,0.0,92,0.01,,,0.61,meteobridge,2013-08-09 13:20:00,
2013-08-09 09:37:00,72.9,70.3,29.81,SSE,166,0.9,2.0,92,0.00,,,0.61,meteobridge,2013-08-09 13:37:00,
2013-08-09 09:46:00,72.9,70.3,29.81,SW,228,0.0,0.9,92,0.00,,,0.61,meteobridge,2013-08-09 13:46:00,
2013-08-09 09:52:00,72.9,70.3,29.81,WSW,250,0.0,0.0,92,0.00,,,0.61,meteobridge,2013-08-09 13:52:00,
2013-08-09 09:58:00,72.9,70.2,29.81,North,11,0.0,0.0,91,0.00,,,0.61,meteobridge,2013-08-09 13:58:00,
2013-08-09 10:07:00,72.9,70.2,29.81,SSE,166,0.0,0.9,91,0.00,,,0.61,meteobridge,2013-08-09 14:07:00,
2013-08-09 10:13:00,73.0,70.3,29.81,NW,311,0.0,0.0,91,0.00,,,0.61,meteobridge,2013-08-09 14:13:00,
2013-08-09 10:19:00,73.0,70.3,29.81,NNW,343,0.0,0.0,91,0.00,,,0.61,meteobridge,2013-08-09 14:19:00,
2013-08-09 10:25:00,73.0,70.3,29.81,WSW,251,0.0,6.9,91,0.00,,,0.61,meteobridge,2013-08-09 14:25:00,
2013-08-09 10:31:00,73.2,70.5,29.81,SW,235,0.0,0.0,91,0.00,,,0.61,meteobridge,2013-08-09 14:31:00,
2013-08-09 10:37:00,73.2,70.5,29.81,ESE,114,0.0,0.0,91,0.00,,,0.61,meteobridge,2013-08-09 14:37:00,
2013-08-09 10:46:00,73.0,70.3,29.81,SSW,210,0.9,2.9,91,0.00,,,0.61,meteobridge,2013-08-09 14:46:00,
2013-08-09 10:52:00,73.2,70.5,29.80,NNW,327,2.0,4.0,91,0.00,,,0.61,meteobridge,2013-08-09 14:52:00,
2013-08-09 10:58:00,73.4,70.5,29.80,WSW,243,0.9,4.9,91,0.00,,,0.61,meteobridge,2013-08-09 14:58:00,
2013-08-09 11:06:00,74.1,71.2,29.80,West,267,0.9,6.9,91,0.00,,,0.61,meteobridge,2013-08-09 15:06:00,
2013-08-09 11:12:00,74.5,72.0,29.80,SW,225,2.9,8.9,92,0.00,,,0.61,meteobridge,2013-08-09 15:12:00,
2013-08-09 11:18:00,74.8,72.3,29.80,NNW,332,0.0,12.1,92,0.01,,,0.62,meteobridge,2013-08-09 15:18:00,
2013-08-09 11:24:00,75.0,72.5,29.80,SSW,211,0.0,6.9,92,0.01,,,0.62,meteobridge,2013-08-09 15:24:00,
2013-08-09 11:31:00,75.2,72.7,29.79,WNW,295,6.0,6.9,92,0.01,,,0.62,meteobridge,2013-08-09 15:31:00,
2013-08-09 11:37:00,75.6,73.0,29.80,SE,130,0.9,2.9,92,0.01,,,0.62,meteobridge,2013-08-09 15:37:00,
2013-08-09 11:43:00,75.9,73.0,29.79,ENE,70,0.9,8.1,91,0.01,,,0.62,meteobridge,2013-08-09 15:43:00,
2013-08-09 11:49:00,76.3,73.4,29.80,ESE,114,2.9,4.9,91,0.01,,,0.62,meteobridge,2013-08-09 15:49:00,
2013-08-09 11:55:00,76.1,73.2,29.80,SSE,163,2.9,8.1,91,0.01,,,0.62,meteobridge,2013-08-09 15:55:00,
2013-08-09 12:01:00,75.9,73.0,29.80,WNW,288,2.9,2.9,91,0.01,,,0.62,meteobridge,2013-08-09 16:01:00,
2013-08-09 12:07:00,76.1,73.2,29.80,NE,47,0.0,4.9,91,0.01,,,0.62,meteobridge,2013-08-09 16:07:00,
2013-08-09 12:14:00,76.6,73.4,29.80,WSW,249,0.0,4.0,90,0.00,,,0.62,meteobridge,2013-08-09 16:14:00,
2013-08-09 12:20:00,76.8,73.6,29.80,West,269,6.0,12.1,90,0.00,,,0.62,meteobridge,2013-08-09 16:20:00,
2013-08-09 12:26:00,76.6,73.2,29.80,NW,307,2.9,4.0,89,0.00,,,0.62,meteobridge,2013-08-09 16:26:00,
2013-08-09 12:32:00,77.4,73.9,29.80,North,9,0.9,6.0,89,0.00,,,0.62,meteobridge,2013-08-09 16:32:00,
2013-08-09 12:38:00,77.7,73.9,29.80,West,269,0.9,12.1,88,0.00,,,0.62,meteobridge,2013-08-09 16:38:00,
2013-08-09 12:46:00,78.4,73.6,29.80,SW,228,8.9,16.1,85,0.00,,,0.62,meteobridge,2013-08-09 16:46:00,
2013-08-09 12:53:00,78.6,74.1,29.80,WSW,245,2.0,4.0,86,0.00,,,0.62,meteobridge,2013-08-09 16:53:00,
2013-08-09 12:59:00,78.8,73.9,29.79,West,281,2.9,6.0,85,0.00,,,0.62,meteobridge,2013-08-09 16:59:00,
2013-08-09 13:05:00,78.8,73.9,29.79,NNW,330,2.0,4.9,85,0.00,,,0.62,meteobridge,2013-08-09 17:05:00,
2013-08-09 13:11:00,79.0,74.1,29.80,North,357,0.0,2.9,85,0.00,,,0.62,meteobridge,2013-08-09 17:11:00,
2013-08-09 13:17:00,79.0,74.1,29.80,WSW,238,0.9,2.9,85,0.00,,,0.62,meteobridge,2013-08-09 17:17:00,
2013-08-09 13:23:00,79.0,74.1,29.80,North,355,0.0,6.0,85,0.00,,,0.62,meteobridge,2013-08-09 17:23:00,
2013-08-09 13:29:00,79.0,74.5,29.79,North,350,0.0,4.9,86,0.00,,,0.62,meteobridge,2013-08-09 17:29:00,
2013-08-09 13:35:00,79.2,74.3,29.79,West,279,2.0,6.0,85,0.00,,,0.62,meteobridge,2013-08-09 17:35:00,
2013-08-09 13:42:00,79.3,74.5,29.79,West,271,0.9,2.9,85,0.00,,,0.62,meteobridge,2013-08-09 17:42:00,
2013-08-09 13:48:00,79.5,74.3,29.78,WSW,253,2.9,6.9,84,0.00,,,0.62,meteobridge,2013-08-09 17:48:00,
2013-08-09 13:56:00,79.9,74.7,29.79,West,263,6.0,6.9,84,0.00,,,0.62,meteobridge,2013-08-09 17:56:00,
2013-08-09 14:02:00,80.8,75.9,29.78,WNW,290,0.0,4.9,85,0.00,,,0.62,meteobridge,2013-08-09 18:02:00,
2013-08-09 14:08:00,81.3,74.5,29.78,WNW,287,0.9,6.0,80,0.00,,,0.62,meteobridge,2013-08-09 18:08:00,
2013-08-09 14:14:00,81.7,74.8,29.78,WNW,288,2.9,6.9,80,0.00,,,0.62,meteobridge,2013-08-09 18:14:00,
2013-08-09 14:20:00,81.3,74.5,29.78,NNW,337,0.9,6.0,80,0.00,,,0.62,meteobridge,2013-08-09 18:20:00,
2013-08-09 14:27:00,81.3,74.5,29.78,NNW,332,2.9,4.9,80,0.00,,,0.62,meteobridge,2013-08-09 18:27:00,
2013-08-09 14:33:00,81.0,74.1,29.78,SW,222,0.9,6.0,80,0.00,,,0.62,meteobridge,2013-08-09 18:33:00,
2013-08-09 14:39:00,81.5,74.7,29.78,West,259,0.9,4.0,80,0.00,,,0.62,meteobridge,2013-08-09 18:39:00,
2013-08-09 14:45:00,82.2,75.7,29.78,WSW,252,0.0,2.0,81,0.00,,,0.62,meteobridge,2013-08-09 18:45:00,
2013-08-09 14:51:00,82.8,75.2,29.78,West,260,4.0,4.0,78,0.00,,,0.62,meteobridge,2013-08-09 18:51:00,
2013-08-09 14:57:00,82.9,74.7,29.78,NW,320,4.9,8.1,76,0.00,,,0.62,meteobridge,2013-08-09 18:57:00,
2013-08-09 15:05:00,82.0,74.1,29.78,WNW,287,2.9,4.0,77,0.00,,,0.62,meteobridge,2013-08-09 19:05:00,
2013-08-09 15:11:00,82.6,75.0,29.77,ESE,111,0.9,4.0,78,0.00,,,0.62,meteobridge,2013-08-09 19:11:00,
2013-08-09 15:17:00,83.5,75.0,29.77,WNW,303,2.0,4.0,76,0.00,,,0.62,meteobridge,2013-08-09 19:17:00,
2013-08-09 15:24:00,84.0,75.2,29.77,NNW,343,2.9,4.9,75,0.00,,,0.62,meteobridge,2013-08-09 19:24:00,
2013-08-09 15:30:00,83.8,74.7,29.77,West,271,2.9,4.0,74,0.00,,,0.62,meteobridge,2013-08-09 19:30:00,
2013-08-09 15:36:00,83.1,74.8,29.77,WSW,253,0.0,2.9,76,0.00,,,0.62,meteobridge,2013-08-09 19:36:00,
2013-08-09 15:42:00,82.2,74.3,29.76,NNE,15,2.0,4.9,77,0.00,,,0.62,meteobridge,2013-08-09 19:42:00,
2013-08-09 15:48:00,81.9,74.3,29.76,WNW,284,0.9,2.9,78,0.00,,,0.62,meteobridge,2013-08-09 19:48:00,
2013-08-09 15:54:00,81.7,74.5,29.76,NNE,25,0.0,0.9,79,0.00,,,0.62,meteobridge,2013-08-09 19:54:00,
2013-08-09 16:01:00,81.3,74.1,29.76,WSW,256,2.0,2.0,79,0.00,,,0.62,meteobridge,2013-08-09 20:01:00,
2013-08-09 16:07:00,81.0,73.8,29.77,NNW,332,2.9,6.0,79,0.00,,,0.62,meteobridge,2013-08-09 20:07:00,
2013-08-09 16:13:00,80.4,74.1,29.77,WSW,257,0.0,0.9,81,0.00,,,0.62,meteobridge,2013-08-09 20:13:00,
2013-08-09 16:20:00,80.1,74.1,29.78,WNW,291,2.9,4.0,82,0.00,,,0.62,meteobridge,2013-08-09 20:20:00,
2013-08-09 16:26:00,78.8,74.3,29.78,West,277,0.9,2.0,86,0.10,,,0.72,meteobridge,2013-08-09 20:26:00,
2013-08-09 16:32:00,77.0,73.6,29.78,NW,322,2.9,4.0,89,0.21,,,0.83,meteobridge,2013-08-09 20:32:00,
2013-08-09 16:38:00,75.9,73.0,29.78,ESE,111,0.0,2.9,91,0.28,,,0.90,meteobridge,2013-08-09 20:38:00,
2013-08-09 16:46:00,75.4,72.5,29.77,East,100,0.0,0.0,91,0.32,,,0.94,meteobridge,2013-08-09 20:46:00,
2013-08-09 16:52:00,75.2,72.3,29.78,SSE,155,0.9,0.9,91,0.33,,,0.95,meteobridge,2013-08-09 20:52:00,
2013-08-09 16:58:00,75.4,72.5,29.78,SSW,208,0.0,0.0,91,0.33,,,0.95,meteobridge,2013-08-09 20:58:00,
2013-08-09 17:05:00,75.7,72.9,29.78,SW,231,0.9,0.9,91,0.33,,,0.95,meteobridge,2013-08-09 21:05:00,
2013-08-09 17:11:00,76.5,73.6,29.78,SSE,155,0.0,0.0,91,0.33,,,0.95,meteobridge,2013-08-09 21:11:00,
2013-08-09 17:18:00,76.8,73.9,29.78,SW,231,0.0,0.0,91,0.33,,,0.95,meteobridge,2013-08-09 21:18:00,
2013-08-09 17:26:00,76.6,73.8,29.78,NE,34,0.0,0.0,91,0.22,,,0.95,meteobridge,2013-08-09 21:26:00,
2013-08-09 17:32:00,76.3,73.4,29.78,WSW,255,0.0,0.0,91,0.11,,,0.95,meteobridge,2013-08-09 21:32:00,
2013-08-09 17:39:00,76.1,73.2,29.77,NW,317,0.0,0.0,91,0.04,,,0.95,meteobridge,2013-08-09 21:39:00,
2013-08-09 17:45:00,75.9,73.0,29.77,NNW,340,0.0,0.0,91,0.01,,,0.95,meteobridge,2013-08-09 21:45:00,
2013-08-09 17:51:00,75.7,72.9,29.77,West,262,0.0,0.0,91,0.00,,,0.95,meteobridge,2013-08-09 21:51:00,
2013-08-09 17:57:00,75.6,72.7,29.77,West,269,0.0,0.0,91,0.01,,,0.96,meteobridge,2013-08-09 21:57:00,
2013-08-09 18:06:00,75.6,72.7,29.77,West,262,0.0,0.0,91,0.01,,,0.96,meteobridge,2013-08-09 22:06:00,
2013-08-09 18:13:00,75.4,72.5,29.77,North,8,0.0,0.0,91,0.02,,,0.97,meteobridge,2013-08-09 22:13:00,
2013-08-09 18:19:00,75.0,72.1,29.77,ENE,65,0.9,2.0,91,0.02,,,0.97,meteobridge,2013-08-09 22:19:00,
2013-08-09 18:25:00,74.7,71.8,29.77,NNW,340,0.9,4.0,91,0.02,,,0.97,meteobridge,2013-08-09 22:25:00,
2013-08-09 18:31:00,74.3,71.4,29.78,NW,326,0.0,2.0,91,0.02,,,0.97,meteobridge,2013-08-09 22:31:00,
2013-08-09 18:37:00,74.1,71.2,29.79,NE,37,0.0,2.9,91,0.03,,,0.98,meteobridge,2013-08-09 22:37:00,
2013-08-09 18:46:00,73.8,70.9,29.80,NNW,341,0.0,4.0,91,0.03,,,0.98,meteobridge,2013-08-09 22:46:00,
2013-08-09 18:52:00,73.2,70.7,29.80,North,355,0.9,2.9,92,0.03,,,0.98,meteobridge,2013-08-09 22:52:00,
2013-08-09 18:59:00,72.9,70.3,29.79,West,269,0.0,0.0,92,0.02,,,0.98,meteobridge,2013-08-09 22:59:00,
2013-08-09 19:05:00,72.9,70.2,29.79,NNW,338,0.0,0.9,91,0.02,,,0.98,meteobridge,2013-08-09 23:05:00,
2013-08-09 19:11:00,72.9,70.2,29.80,NNW,338,0.0,0.0,91,0.01,,,0.98,meteobridge,2013-08-09 23:11:00,
2013-08-09 19:17:00,73.0,70.3,29.80,NNW,338,0.0,0.0,91,0.01,,,0.98,meteobridge,2013-08-09 23:17:00,
2013-08-09 19:24:00,73.0,70.3,29.79,NNW,329,0.0,0.0,91,0.01,,,0.98,meteobridge,2013-08-09 23:24:00,
2013-08-09 19:30:00,73.0,70.3,29.79,NNW,328,0.0,0.0,91,0.01,,,0.98,meteobridge,2013-08-09 23:30:00,
2013-08-09 19:36:00,73.0,70.3,29.79,NNW,328,0.0,0.0,91,0.00,,,0.98,meteobridge,2013-08-09 23:36:00,
2013-08-09 19:43:00,72.9,70.2,29.79,NNW,328,0.0,0.0,91,0.00,,,0.98,meteobridge,2013-08-09 23:43:00,
2013-08-09 19:49:00,72.7,70.0,29.79,NW,323,0.0,0.0,91,0.00,,,0.98,meteobridge,2013-08-09 23:49:00,
2013-08-09 19:55:00,72.3,69.6,29.80,WSW,252,0.0,0.9,91,0.00,,,0.98,meteobridge,2013-08-09 23:55:00,
2013-08-09 20:01:00,72.3,69.6,29.80,WSW,254,0.0,0.0,91,0.00,,,0.98,meteobridge,2013-08-10 00:01:00,
2013-08-09 20:08:00,72.1,69.4,29.80,West,262,0.0,0.0,91,0.00,,,0.98,meteobridge,2013-08-10 00:08:00,
2013-08-09 20:16:00,72.0,69.3,29.80,NW,315,0.0,0.0,91,0.00,,,0.98,meteobridge,2013-08-10 00:16:00,
2013-08-09 20:22:00,71.8,69.1,29.80,NW,316,0.0,0.0,91,0.00,,,0.98,meteobridge,2013-08-10 00:22:00,
2013-08-09 20:28:00,71.8,69.1,29.79,West,264,0.0,0.0,91,0.00,,,0.98,meteobridge,2013-08-10 00:28:00,
2013-08-09 20:35:00,71.6,68.9,29.80,West,266,0.0,0.0,91,0.00,,,0.98,meteobridge,2013-08-10 00:35:00,
2013-08-09 20:41:00,71.4,68.7,29.79,North,3,0.0,0.0,91,0.00,,,0.98,meteobridge,2013-08-10 00:41:00,
2013-08-09 20:47:00,71.4,68.7,29.79,North,4,0.0,0.0,91,0.00,,,0.98,meteobridge,2013-08-10 00:47:00,
2013-08-09 20:55:00,71.2,68.5,29.79,North,3,0.0,0.0,91,0.00,,,0.98,meteobridge,2013-08-10 00:55:00,
2013-08-09 21:02:00,71.2,68.5,29.80,NNW,336,0.0,0.0,91,0.00,,,0.98,meteobridge,2013-08-10 01:02:00,
2013-08-09 21:08:00,71.2,68.5,29.80,NNW,335,0.0,0.0,91,0.00,,,0.98,meteobridge,2013-08-10 01:08:00,
2013-08-09 21:16:00,71.1,68.4,29.80,NNW,335,0.0,0.0,91,0.00,,,0.98,meteobridge,2013-08-10 01:16:00,
2013-08-09 21:22:00,71.1,68.4,29.80,NNW,336,0.0,0.0,91,0.00,,,0.98,meteobridge,2013-08-10 01:22:00,
2013-08-09 21:28:00,71.1,68.4,29.81,NNW,333,0.0,0.0,91,0.00,,,0.98,meteobridge,2013-08-10 01:28:00,
2013-08-09 21:47:00,70.7,68.0,29.82,NNW,334,0.0,0.0,91,0.00,,,0.98,meteobridge,2013-08-10 01:47:00,
2013-08-09 21:54:00,70.5,67.8,29.82,NNW,335,0.0,0.0,91,0.00,,,0.98,meteobridge,2013-08-10 01:54:00,
2013-08-09 22:00:00,70.5,67.8,29.82,NW,314,0.0,0.0,91,0.00,,,0.98,meteobridge,2013-08-10 02:00:00,
2013-08-09 22:06:00,70.5,67.8,29.83,NNW,346,0.0,0.0,91,0.00,,,0.98,meteobridge,2013-08-10 02:06:00,
2013-08-09 22:12:00,70.5,67.8,29.83,NNW,345,0.0,0.0,91,0.00,,,0.98,meteobridge,2013-08-10 02:12:00,
2013-08-09 22:19:00,70.5,67.8,29.83,North,359,0.0,0.0,91,0.00,,,0.98,meteobridge,2013-08-10 02:19:00,
2013-08-09 22:25:00,70.5,67.8,29.83,North,358,0.0,0.0,91,0.00,,,0.98,meteobridge,2013-08-10 02:25:00,
2013-08-09 22:32:00,70.5,67.8,29.83,NW,319,0.9,0.9,91,0.00,,,0.98,meteobridge,2013-08-10 02:32:00,
2013-08-09 22:38:00,70.5,67.8,29.83,NW,318,0.0,0.0,91,0.00,,,0.98,meteobridge,2013-08-10 02:38:00,
2013-08-09 22:44:00,70.3,67.6,29.83,NW,318,0.0,0.0,91,0.00,,,0.98,meteobridge,2013-08-10 02:44:00,
2013-08-09 22:51:00,70.3,67.6,29.83,WNW,286,0.0,0.0,91,0.00,,,0.98,meteobridge,2013-08-10 02:51:00,
2013-08-09 22:57:00,70.3,67.6,29.83,West,273,0.0,0.0,91,0.00,,,0.98,meteobridge,2013-08-10 02:57:00,
2013-08-09 23:03:00,70.3,67.6,29.83,North,3,0.0,0.0,91,0.00,,,0.98,meteobridge,2013-08-10 03:03:00,
2013-08-09 23:09:00,70.2,67.5,29.83,North,1,0.0,0.0,91,0.00,,,0.98,meteobridge,2013-08-10 03:09:00,
2013-08-09 23:16:00,70.2,67.5,29.84,North,1,0.0,0.0,91,0.00,,,0.98,meteobridge,2013-08-10 03:16:00,
2013-08-09 23:22:00,70.0,67.3,29.84,North,6,0.0,0.0,91,0.00,,,0.98,meteobridge,2013-08-10 03:22:00,
2013-08-09 23:28:00,70.0,67.5,29.84,NNW,332,0.0,0.0,92,0.00,,,0.98,meteobridge,2013-08-10 03:28:00,
2013-08-09 23:37:00,70.0,67.5,29.84,NW,305,0.0,0.0,92,0.00,,,0.98,meteobridge,2013-08-10 03:37:00,
2013-08-09 23:43:00,70.0,67.5,29.84,NW,307,0.0,0.0,92,0.00,,,0.98,meteobridge,2013-08-10 03:43:00,
2013-08-09 23:49:00,70.0,67.5,29.84,NW,308,0.0,0.0,92,0.00,,,0.98,meteobridge,2013-08-10 03:49:00,
2013-08-09 23:56:00,69.8,67.3,29.84,NW,311,0.0,0.0,92,0.00,,,0.98,meteobridge,2013-08-10 03:56:00,